Time;durP1;ratioP1;P1;durP2;ratioP2;P2;SDS_P1;SDS_P2;PMS_P1;PMS_P2;Temp;Humidity;BMP_temperature;BMP_pressure;BME280_temperature;BME280_humidity;BME280_pressure;Samples;Min_cycle;Max_cycle;Signal;HPM_P1;HPM_P2
2022/04/28 00:00:12;;;;;;;44.50;26.98;;;;;;;;;;5073410;28;20059;-39
2022/04/28 00:02:39;;;;;;;37.42;20.58;;;;;;;;;;5073287;28;20024;-38
2022/04/28 00:05:06;;;;;;;42.88;24.83;;;;;;;;;;5073085;28;20037;-41
2022/04/28 00:07:32;;;;;;;24.75;16.58;;;;;;;;;;5073418;28;20038;-40
2022/04/28 00:09:59;;;;;;;35.53;21.60;;;;;;;;;;5073221;28;20028;-41
2022/04/28 00:12:25;;;;;;;34.00;18.92;;;;;;;;;;5073446;28;20149;-40
2022/04/28 00:14:51;;;;;;;27.60;15.35;;;;;;;;;;5071806;28;20502;-40
2022/04/28 00:17:17;;;;;;;28.08;17.13;;;;;;;;;;5073377;28;20071;-40
2022/04/28 00:19:43;;;;;;;33.38;21.75;;;;;;;;;;5073192;28;20021;-41
2022/04/28 00:22:09;;;;;;;24.85;14.70;;;;;;;;;;5073067;28;20047;-40
2022/04/28 00:24:35;;;;;;;19.30;13.05;;;;;;;;;;5073251;28;20082;-39
2022/04/28 00:27:01;;;;;;;20.70;12.88;;;;;;;;;;5073342;28;20027;-39
2022/04/28 00:29:27;;;;;;;25.13;14.27;;;;;;;;;;5073321;28;20112;-41
2022/04/28 00:31:53;;;;;;;33.85;20.17;;;;;;;;;;5073054;28;20024;-40
2022/04/28 00:34:19;;;;;;;24.88;15.82;;;;;;;;;;5073141;28;20070;-40
2022/04/28 00:36:45;;;;;;;19.83;13.20;;;;;;;;;;5073139;28;20025;-37
2022/04/28 00:39:11;;;;;;;17.98;12.13;;;;;;;;;;5073155;28;20502;-39
2022/04/28 00:41:38;;;;;;;22.77;14.55;;;;;;;;;;5073041;28;20055;-38
2022/04/28 00:44:07;;;;;;;18.70;12.02;;;;;;;;;;5072873;28;20041;-40
2022/04/28 00:46:33;;;;;;;30.48;18.38;;;;;;;;;;5073078;28;20388;-38
2022/04/28 00:51:44;;;;;;;21.42;11.85;;;;;;;;;;5073126;28;20039;-41
2022/04/28 00:54:11;;;;;;;19.92;11.68;;;;;;;;;;5072900;28;20020;-41
2022/04/28 00:56:37;;;;;;;27.60;16.33;;;;;;;;;;5072897;28;20028;-40
2022/04/28 00:59:05;;;;;;;23.33;13.93;;;;;;;;;;5073048;28;20016;-40
2022/04/28 01:01:32;;;;;;;17.10;12.05;;;;;;;;;;5072808;28;20054;-40
2022/04/28 01:03:59;;;;;;;24.15;14.45;;;;;;;;;;5075890;28;20507;-40
2022/04/28 01:06:25;;;;;;;18.30;12.52;;;;;;;;;;5076592;28;20107;-40
2022/04/28 01:08:52;;;;;;;18.98;12.38;;;;;;;;;;5076478;28;20059;-40
2022/04/28 01:11:18;;;;;;;18.17;11.98;;;;;;;;;;5076440;28;20028;-40
2022/04/28 01:13:44;;;;;;;17.92;11.98;;;;;;;;;;5076311;28;20468;-40
2022/04/28 01:16:13;;;;;;;20.33;12.55;;;;;;;;;;5076218;28;20456;-40
2022/04/28 01:18:40;;;;;;;21.85;14.48;;;;;;;;;;5076150;28;20028;-40
2022/04/28 01:21:06;;;;;;;19.60;12.27;;;;;;;;;;5076072;28;20029;-40
2022/04/28 01:23:33;;;;;;;17.13;11.38;;;;;;;;;;5075983;28;20044;-40
2022/04/28 01:25:59;;;;;;;19.02;11.38;;;;;;;;;;5076097;28;20025;-39
2022/04/28 01:28:29;;;;;;;21.00;13.40;;;;;;;;;;5076311;28;20025;-39
2022/04/28 01:30:55;;;;;;;24.98;16.42;;;;;;;;;;5076010;28;20030;-40
2022/04/28 01:33:21;;;;;;;18.17;12.82;;;;;;;;;;5076067;28;20468;-40
2022/04/28 01:35:47;;;;;;;20.80;11.93;;;;;;;;;;5075825;28;20036;-40
2022/04/28 01:38:13;;;;;;;18.15;11.82;;;;;;;;;;5075853;28;20017;-39
2022/04/28 01:40:40;;;;;;;25.58;14.70;;;;;;;;;;5075728;28;20078;-40
2022/04/28 01:43:06;;;;;;;17.63;11.90;;;;;;;;;;5075728;28;20025;-39
2022/04/28 01:45:32;;;;;;;19.20;12.57;;;;;;;;;;5075660;28;20119;-40
2022/04/28 01:47:58;;;;;;;17.45;11.30;;;;;;;;;;5075567;28;20542;-40
2022/04/28 01:50:24;;;;;;;18.70;12.32;;;;;;;;;;5075319;28;20476;-40
2022/04/28 01:55:35;;;;;;;17.67;12.15;;;;;;;;;;5075688;28;20039;-40
2022/04/28 01:58:01;;;;;;;21.38;14.38;;;;;;;;;;5075981;28;20494;-39
2022/04/28 02:00:29;;;;;;;20.13;13.27;;;;;;;;;;5075697;28;20014;-40
2022/04/28 02:02:55;;;;;;;20.25;13.15;;;;;;;;;;5075293;28;20507;-40
2022/04/28 02:05:21;;;;;;;20.48;12.15;;;;;;;;;;5075681;28;20052;-40
2022/04/28 02:07:47;;;;;;;17.23;11.80;;;;;;;;;;5075313;28;20475;-40
2022/04/28 02:10:14;;;;;;;16.58;11.27;;;;;;;;;;5075476;28;20024;-41
2022/04/28 02:12:43;;;;;;;23.42;14.43;;;;;;;;;;5075154;28;20052;-41
2022/04/28 02:15:09;;;;;;;19.20;12.25;;;;;;;;;;5074959;28;20074;-41
2022/04/28 02:17:38;;;;;;;22.33;14.07;;;;;;;;;;5074998;28;20040;-41
2022/04/28 02:20:06;;;;;;;20.85;13.13;;;;;;;;;;5074782;28;20036;-40
2022/04/28 02:22:32;;;;;;;17.92;12.45;;;;;;;;;;5074907;28;20027;-41
2022/04/28 02:24:58;;;;;;;21.23;12.20;;;;;;;;;;5074900;28;20067;-41
2022/04/28 02:27:24;;;;;;;19.15;12.52;;;;;;;;;;5074888;28;20104;-38
2022/04/28 02:29:51;;;;;;;24.95;14.10;;;;;;;;;;5074903;28;20025;-40
2022/04/28 02:32:17;;;;;;;19.35;13.27;;;;;;;;;;5073445;28;20021;-39
2022/04/28 02:34:43;;;;;;;19.90;12.85;;;;;;;;;;5074914;28;20471;-40
2022/04/28 02:37:09;;;;;;;20.35;13.70;;;;;;;;;;5074773;28;20074;-40
2022/04/28 02:39:36;;;;;;;22.90;13.52;;;;;;;;;;5074858;28;20476;-41
2022/04/28 02:42:02;;;;;;;27.10;16.10;;;;;;;;;;5074636;28;20032;-41
2022/04/28 02:44:28;;;;;;;25.38;15.75;;;;;;;;;;5074546;28;20070;-41
2022/04/28 02:46:54;;;;;;;27.45;15.10;;;;;;;;;;5074469;28;20033;-41
2022/04/28 02:49:20;;;;;;;22.48;14.63;;;;;;;;;;5074390;28;20120;-41
2022/04/28 02:51:46;;;;;;;23.00;14.32;;;;;;;;;;5074364;28;20571;-41
2022/04/28 02:54:12;;;;;;;25.40;15.68;;;;;;;;;;5074381;28;20106;-41
2022/04/28 02:56:38;;;;;;;24.10;13.80;;;;;;;;;;5074456;28;20491;-41
2022/04/28 02:59:05;;;;;;;23.80;14.02;;;;;;;;;;5074339;28;20025;-39
2022/04/28 03:01:31;;;;;;;24.45;15.55;;;;;;;;;;5074238;28;20081;-40
2022/04/28 03:03:57;;;;;;;21.98;14.35;;;;;;;;;;5074144;28;20036;-41
2022/04/28 03:11:56;;;;;;;25.17;15.85;;;;;;;;;;5074256;28;20039;-40
2022/04/28 03:14:22;;;;;;;22.52;14.15;;;;;;;;;;5074107;28;20476;-40
2022/04/28 03:16:51;;;;;;;19.20;14.82;;;;;;;;;;5073968;28;20025;-39
2022/04/28 03:19:17;;;;;;;19.65;13.35;;;;;;;;;;5073837;28;20012;-39
2022/04/28 03:21:43;;;;;;;23.73;15.93;;;;;;;;;;5073868;28;20503;-39
2022/04/28 03:24:10;;;;;;;23.25;14.70;;;;;;;;;;5073601;28;20040;-39
2022/04/28 03:26:38;;;;;;;19.92;13.63;;;;;;;;;;5073103;28;20016;-39
2022/04/28 03:29:05;;;;;;;21.15;13.93;;;;;;;;;;5073644;28;20031;-39
2022/04/28 03:31:31;;;;;;;19.88;13.32;;;;;;;;;;5073817;28;20032;-39
2022/04/28 03:33:57;;;;;;;18.27;13.27;;;;;;;;;;5073907;28;20029;-40
2022/04/28 03:39:08;;;;;;;21.95;14.30;;;;;;;;;;5073693;28;20040;-39
2022/04/28 03:41:34;;;;;;;18.02;13.23;;;;;;;;;;5073491;28;20107;-40
2022/04/28 03:44:00;;;;;;;20.35;13.73;;;;;;;;;;5073636;28;20060;-40
2022/04/28 03:46:26;;;;;;;25.05;15.23;;;;;;;;;;5073510;28;20471;-39
2022/04/28 03:48:52;;;;;;;25.23;14.90;;;;;;;;;;5073678;28;20032;-39
2022/04/28 03:51:19;;;;;;;20.92;14.77;;;;;;;;;;5073230;28;20044;-39
2022/04/28 03:53:45;;;;;;;25.30;16.10;;;;;;;;;;5073451;28;20048;-40
2022/04/28 03:56:13;;;;;;;21.45;13.93;;;;;;;;;;5072493;28;20043;-46
2022/04/28 03:58:42;;;;;;;23.30;15.80;;;;;;;;;;5073614;28;20050;-41
2022/04/28 04:01:08;;;;;;;22.20;14.90;;;;;;;;;;5073477;28;20035;-41
2022/04/28 04:03:34;;;;;;;27.10;15.70;;;;;;;;;;5073549;28;20127;-38
2022/04/28 04:06:00;;;;;;;21.90;13.88;;;;;;;;;;5073472;28;20024;-38
2022/04/28 04:08:29;;;;;;;22.08;14.63;;;;;;;;;;5073418;28;20028;-40
2022/04/28 04:10:55;;;;;;;20.60;15.27;;;;;;;;;;5073297;28;20024;-40
2022/04/28 04:13:21;;;;;;;22.95;15.98;;;;;;;;;;5073199;28;20115;-40
2022/04/28 04:15:50;;;;;;;21.40;14.95;;;;;;;;;;5073492;28;20017;-40
2022/04/28 04:18:19;;;;;;;21.33;15.25;;;;;;;;;;5073121;28;20032;-40
2022/04/28 04:20:45;;;;;;;22.27;15.07;;;;;;;;;;5073099;28;20025;-40
2022/04/28 04:23:11;;;;;;;22.73;15.10;;;;;;;;;;5073227;28;20024;-40
2022/04/28 04:25:37;;;;;;;21.38;14.63;;;;;;;;;;5073028;28;20041;-41
2022/04/28 04:28:04;;;;;;;21.17;14.35;;;;;;;;;;5073186;28;20025;-40
2022/04/28 04:33:19;;;;;;;31.23;19.42;;;;;;;;;;5071078;28;20064;-41
2022/04/28 04:35:45;;;;;;;37.08;22.23;;;;;;;;;;5070886;28;20358;-40
2022/04/28 04:38:11;;;;;;;27.40;18.65;;;;;;;;;;5074984;28;20037;-41
2022/04/28 04:40:37;;;;;;;23.73;15.52;;;;;;;;;;5074871;28;20032;-40
2022/04/28 04:43:05;;;;;;;29.85;19.15;;;;;;;;;;5074717;28;20021;-41
2022/04/28 04:45:32;;;;;;;27.52;18.67;;;;;;;;;;5074672;28;20178;-40
2022/04/28 04:47:58;;;;;;;45.85;26.58;;;;;;;;;;5074676;28;20024;-40
2022/04/28 04:50:27;;;;;;;29.15;17.45;;;;;;;;;;5074494;28;20052;-40
2022/04/28 04:52:53;;;;;;;28.73;19.48;;;;;;;;;;5068522;28;20036;-41
2022/04/28 04:55:23;;;;;;;27.35;17.23;;;;;;;;;;5054447;28;20035;-41
2022/04/28 04:57:49;;;;;;;25.88;16.08;;;;;;;;;;5054047;28;20029;-41
2022/04/28 05:00:16;;;;;;;30.23;19.00;;;;;;;;;;5054021;28;20389;-41
2022/04/28 05:02:42;;;;;;;33.33;21.95;;;;;;;;;;5054068;28;20017;-41
2022/04/28 05:05:08;;;;;;;24.08;16.20;;;;;;;;;;5053599;28;20072;-40
2022/04/28 05:07:37;;;;;;;30.35;18.27;;;;;;;;;;5054511;28;20029;-41
2022/04/28 05:10:03;;;;;;;27.05;17.50;;;;;;;;;;5055032;28;20048;-40
2022/04/28 05:12:29;;;;;;;29.90;16.25;;;;;;;;;;5056596;28;20021;-41
2022/04/28 05:14:55;;;;;;;25.67;16.48;;;;;;;;;;5056565;28;20057;-40
2022/04/28 05:17:21;;;;;;;29.13;17.15;;;;;;;;;;5056361;28;20024;-41
2022/04/28 05:19:47;;;;;;;24.48;15.73;;;;;;;;;;5056097;28;20025;-41
2022/04/28 05:22:14;;;;;;;27.92;17.60;;;;;;;;;;5055896;28;20025;-41
2022/04/28 05:24:40;;;;;;;27.77;15.90;;;;;;;;;;5055945;28;20033;-41
2022/04/28 05:27:06;;;;;;;26.10;17.23;;;;;;;;;;5056285;28;20032;-41
2022/04/28 05:29:32;;;;;;;28.73;17.33;;;;;;;;;;5056232;28;20033;-41
2022/04/28 05:31:58;;;;;;;24.77;16.92;;;;;;;;;;5056114;28;20488;-42
2022/04/28 05:34:24;;;;;;;26.55;17.05;;;;;;;;;;5055938;28;20033;-41
2022/04/28 05:36:50;;;;;;;22.23;14.95;;;;;;;;;;5055755;28;20032;-40
2022/04/28 05:39:17;;;;;;;22.52;15.27;;;;;;;;;;5054553;28;20029;-41
2022/04/28 05:41:43;;;;;;;28.73;16.08;;;;;;;;;;5055775;28;20151;-40
2022/04/28 05:46:54;;;;;;;25.75;16.23;;;;;;;;;;5056062;28;20408;-41
2022/04/28 05:49:21;;;;;;;20.83;14.55;;;;;;;;;;5054721;28;20507;-41
2022/04/28 05:51:48;;;;;;;28.60;15.88;;;;;;;;;;5055436;28;20037;-41
2022/04/28 05:54:17;;;;;;;26.25;17.27;;;;;;;;;;5055675;28;20028;-42
2022/04/28 05:56:43;;;;;;;22.60;14.93;;;;;;;;;;5055673;28;20033;-41
2022/04/28 05:59:10;;;;;;;35.35;21.55;;;;;;;;;;5055656;28;20025;-42
2022/04/28 06:01:37;;;;;;;28.95;17.05;;;;;;;;;;5055328;28;20392;-42
2022/04/28 06:04:04;;;;;;;26.45;16.45;;;;;;;;;;5055290;28;20029;-40
2022/04/28 06:06:30;;;;;;;27.60;15.88;;;;;;;;;;5055178;28;20021;-39
2022/04/28 06:08:58;;;;;;;24.48;15.90;;;;;;;;;;5055510;28;20519;-40
2022/04/28 06:11:25;;;;;;;25.58;17.08;;;;;;;;;;5055416;28;20028;-40
2022/04/28 06:13:51;;;;;;;26.08;17.38;;;;;;;;;;5055241;28;20099;-40
2022/04/28 06:16:17;;;;;;;26.92;17.08;;;;;;;;;;5055409;28;20384;-40
2022/04/28 06:18:43;;;;;;;26.33;16.00;;;;;;;;;;5055139;28;20495;-40
2022/04/28 06:21:09;;;;;;;25.55;16.55;;;;;;;;;;5054947;28;20481;-39
2022/04/28 06:23:35;;;;;;;22.65;14.43;;;;;;;;;;5054963;28;20029;-40
2022/04/28 06:26:01;;;;;;;21.27;14.43;;;;;;;;;;5055036;28;20036;-40
2022/04/28 06:28:28;;;;;;;18.75;13.02;;;;;;;;;;5054933;28;20057;-39
2022/04/28 06:30:54;;;;;;;21.17;13.07;;;;;;;;;;5054983;28;20036;-40
2022/04/28 06:33:21;;;;;;;18.98;13.52;;;;;;;;;;5053703;28;20040;-39
2022/04/28 06:35:47;;;;;;;18.73;13.00;;;;;;;;;;5054510;28;20104;-40
2022/04/28 06:38:14;;;;;;;20.17;13.18;;;;;;;;;;5054754;28;20472;-40
2022/04/28 06:40:42;;;;;;;19.23;13.18;;;;;;;;;;5054591;28;20040;-42
2022/04/28 06:43:10;;;;;;;18.95;12.98;;;;;;;;;;5054881;28;20021;-40
2022/04/28 06:46:11;;;;;;;20.98;13.32;;;;;;;;;;5054749;28;20534;-40
2022/04/28 06:48:25;;;;;;;16.88;11.73;;;;;;;;;;5054695;28;20495;-41
2022/04/28 06:50:51;;;;;;;19.23;13.20;;;;;;;;;;5054218;28;20045;-41
2022/04/28 06:53:17;;;;;;;18.65;12.38;;;;;;;;;;5054652;28;20059;-42
2022/04/28 06:55:43;;;;;;;20.05;14.15;;;;;;;;;;5054650;28;20029;-42
2022/04/28 06:58:09;;;;;;;21.83;14.48;;;;;;;;;;5054340;28;20021;-42
2022/04/28 07:00:35;;;;;;;21.60;14.32;;;;;;;;;;5054494;28;20446;-42
2022/04/28 07:03:01;;;;;;;24.00;15.93;;;;;;;;;;5054413;28;20031;-42
2022/04/28 07:05:27;;;;;;;24.90;15.93;;;;;;;;;;5054138;28;20033;-42
2022/04/28 07:07:53;;;;;;;25.85;15.40;;;;;;;;;;5054023;28;20021;-41
2022/04/28 07:10:19;;;;;;;20.45;13.60;;;;;;;;;;5054216;28;20029;-42
2022/04/28 07:12:45;;;;;;;21.10;14.52;;;;;;;;;;5054045;28;20025;-41
2022/04/28 07:15:11;;;;;;;22.40;14.57;;;;;;;;;;5053943;28;20078;-42
2022/04/28 07:17:37;;;;;;;24.40;14.57;;;;;;;;;;5054038;28;20028;-41
2022/04/28 07:20:04;;;;;;;26.45;15.45;;;;;;;;;;5052556;28;20098;-41
2022/04/28 07:22:30;;;;;;;22.63;14.63;;;;;;;;;;5053924;28;20107;-41
2022/04/28 07:24:56;;;;;;;19.85;12.82;;;;;;;;;;5053965;28;20114;-41
2022/04/28 07:27:22;;;;;;;20.20;12.52;;;;;;;;;;5052862;28;20082;-41
2022/04/28 07:29:48;;;;;;;22.05;13.02;;;;;;;;;;5054036;28;20035;-41
2022/04/28 07:32:14;;;;;;;22.40;13.70;;;;;;;;;;5053705;28;20392;-42
2022/04/28 07:34:42;;;;;;;32.95;20.08;;;;;;;;;;5053946;28;20021;-43
2022/04/28 07:37:08;;;;;;;21.33;14.40;;;;;;;;;;5053711;28;20511;-40
2022/04/28 07:39:37;;;;;;;19.05;13.13;;;;;;;;;;5053510;28;20120;-43
2022/04/28 07:42:03;;;;;;;19.17;13.07;;;;;;;;;;5053588;28;20510;-42
2022/04/28 07:44:29;;;;;;;18.75;11.85;;;;;;;;;;5053679;28;20033;-42
2022/04/28 07:46:56;;;;;;;19.17;12.73;;;;;;;;;;5053501;28;20023;-42
2022/04/28 07:49:22;;;;;;;19.20;13.02;;;;;;;;;;5053317;28;20131;-42
2022/04/28 07:51:48;;;;;;;23.38;13.80;;;;;;;;;;5053345;28;20075;-41
2022/04/28 07:54:17;;;;;;;24.38;13.48;;;;;;;;;;5053389;28;20025;-40
2022/04/28 07:56:45;;;;;;;19.52;12.18;;;;;;;;;;5053540;28;20412;-40
2022/04/28 07:59:11;;;;;;;21.67;13.43;;;;;;;;;;5053368;28;20431;-41
2022/04/28 08:01:38;;;;;;;29.00;15.57;;;;;;;;;;5053194;28;20091;-41
2022/04/28 08:04:04;;;;;;;23.27;13.32;;;;;;;;;;5053401;28;20024;-42
2022/04/28 08:06:30;;;;;;;21.20;13.23;;;;;;;;;;5053079;28;20469;-42
2022/04/28 08:08:56;;;;;;;23.55;13.55;;;;;;;;;;5053474;28;20108;-41
2022/04/28 08:11:22;;;;;;;29.27;14.82;;;;;;;;;;5055568;28;20036;-41
2022/04/28 08:13:49;;;;;;;26.98;14.05;;;;;;;;;;5060201;28;20384;-41
2022/04/28 08:16:15;;;;;;;22.23;13.70;;;;;;;;;;5059814;28;20032;-42
2022/04/28 08:18:41;;;;;;;24.40;14.90;;;;;;;;;;5059814;28;20028;-42
2022/04/28 08:21:08;;;;;;;24.98;14.82;;;;;;;;;;5059643;28;20503;-42
2022/04/28 08:23:36;;;;;;;29.60;15.40;;;;;;;;;;5058661;28;20029;-41
2022/04/28 08:26:03;;;;;;;24.02;14.82;;;;;;;;;;5059573;28;20469;-42
2022/04/28 08:28:29;;;;;;;64.88;35.35;;;;;;;;;;5058283;28;20040;-41
2022/04/28 08:30:55;;;;;;;61.22;33.15;;;;;;;;;;5059830;28;20025;-41
2022/04/28 08:33:21;;;;;;;66.75;38.13;;;;;;;;;;5059833;28;20021;-41
2022/04/28 08:35:50;;;;;;;28.63;17.75;;;;;;;;;;5059671;28;20025;-40
2022/04/28 08:38:17;;;;;;;53.72;31.42;;;;;;;;;;5060047;28;20036;-40
2022/04/28 08:40:43;;;;;;;47.58;28.95;;;;;;;;;;5059744;28;20096;-40
2022/04/28 08:43:10;;;;;;;46.70;27.63;;;;;;;;;;5059670;28;20095;-40
2022/04/28 08:46:50;;;;;;;26.25;16.42;;;;;;;;;;5059466;28;20091;-41
2022/04/28 08:48:27;;;;;;;21.45;13.73;;;;;;;;;;5059453;28;20411;-40
2022/04/28 08:50:54;;;;;;;22.17;14.63;;;;;;;;;;5059106;28;20057;-43
2022/04/28 08:53:21;;;;;;;21.52;14.90;;;;;;;;;;5059411;28;20109;-41
2022/04/28 08:55:47;;;;;;;57.83;34.10;;;;;;;;;;5059541;28;20047;-44
2022/04/28 08:58:13;;;;;;;58.33;34.25;;;;;;;;;;5059714;28;20492;-40
2022/04/28 09:00:40;;;;;;;29.40;19.25;;;;;;;;;;5059382;28;20049;-41
2022/04/28 09:03:06;;;;;;;94.28;57.00;;;;;;;;;;5059298;28;20031;-40
2022/04/28 09:05:33;;;;;;;50.42;32.65;;;;;;;;;;5058971;28;20072;-40
2022/04/28 09:08:00;;;;;;;83.45;50.78;;;;;;;;;;5058589;28;20021;-44
2022/04/28 09:10:33;;;;;;;46.75;28.00;;;;;;;;;;5059311;28;20078;-41
2022/04/28 09:15:54;;;;;;;71.40;43.60;;;;;;;;;;5059384;28;20086;-41
2022/04/28 09:18:21;;;;;;;46.03;26.38;;;;;;;;;;5059248;28;20021;-41
2022/04/28 09:20:48;;;;;;;32.05;18.52;;;;;;;;;;5059196;28;20039;-40
2022/04/28 09:23:14;;;;;;;33.65;20.33;;;;;;;;;;5056327;28;20484;-41
2022/04/28 09:25:42;;;;;;;37.05;23.95;;;;;;;;;;5055899;28;20116;-41
2022/04/28 09:28:10;;;;;;;44.15;26.48;;;;;;;;;;5055979;28;20104;-41
2022/04/28 09:30:42;;;;;;;52.10;30.25;;;;;;;;;;5056136;28;20029;-39
2022/04/28 09:33:10;;;;;;;33.25;22.20;;;;;;;;;;5055838;28;20487;-40
2022/04/28 09:35:36;;;;;;;22.02;15.88;;;;;;;;;;5056077;28;20056;-39
2022/04/28 09:38:02;;;;;;;33.42;21.35;;;;;;;;;;5055133;28;20028;-40
2022/04/28 09:43:13;;;;;;;34.20;21.40;;;;;;;;;;5054816;28;20542;-39
2022/04/28 09:45:40;;;;;;;26.65;18.08;;;;;;;;;;5054626;28;20040;-39
2022/04/28 09:48:06;;;;;;;43.17;26.63;;;;;;;;;;5054841;28;20474;-41
2022/04/28 09:50:32;;;;;;;40.28;25.95;;;;;;;;;;5054563;28;20076;-40
2022/04/28 09:53:02;;;;;;;37.13;24.05;;;;;;;;;;5053349;28;20386;-44
2022/04/28 09:55:32;;;;;;;43.78;26.67;;;;;;;;;;5054218;28;20095;-45
2022/04/28 09:57:59;;;;;;;53.95;32.33;;;;;;;;;;5054447;28;20401;-45
2022/04/28 10:00:28;;;;;;;43.80;27.15;;;;;;;;;;5054993;28;20100;-40
2022/04/28 10:02:55;;;;;;;30.42;20.00;;;;;;;;;;5054836;28;20017;-39
2022/04/28 10:05:23;;;;;;;32.03;21.80;;;;;;;;;;5052258;28;20039;-42
2022/04/28 10:07:50;;;;;;;34.42;23.98;;;;;;;;;;5054846;28;20027;-41
2022/04/28 10:10:17;;;;;;;45.58;26.65;;;;;;;;;;5054591;28;20372;-43
2022/04/28 10:12:43;;;;;;;51.05;33.30;;;;;;;;;;5054983;28;20017;-42
2022/04/28 10:15:11;;;;;;;24.77;17.13;;;;;;;;;;5053674;28;20044;-44
2022/04/28 10:17:47;;;;;;;28.02;19.63;;;;;;;;;;5054560;28;20027;-43
2022/04/28 10:20:20;;;;;;;31.58;21.08;;;;;;;;;;5054690;28;20031;-41
2022/04/28 10:22:48;;;;;;;26.85;19.17;;;;;;;;;;5052413;28;20027;-42
2022/04/28 10:33:42;;;;;;;28.17;18.65;;;;;;;;;;5053469;28;20055;-49
2022/04/28 10:36:17;;;;;;;31.65;20.60;;;;;;;;;;5054948;28;20052;-44
2022/04/28 10:39:03;;;;;;;31.63;19.23;;;;;;;;;;5054785;28;20408;-41
2022/04/28 10:41:29;;;;;;;27.15;17.98;;;;;;;;;;5054189;28;20494;-43
2022/04/28 10:43:58;;;;;;;27.27;18.48;;;;;;;;;;5054586;28;20028;-43
2022/04/28 10:46:28;;;;;;;24.73;16.80;;;;;;;;;;5055029;28;20068;-47
2022/04/28 10:48:55;;;;;;;23.23;17.23;;;;;;;;;;5054424;28;20063;-45
2022/04/28 10:51:31;;;;;;;23.60;16.75;;;;;;;;;;5054623;28;20040;-43
2022/04/28 10:54:19;;;;;;;22.83;16.17;;;;;;;;;;5054392;28;20066;-43
2022/04/28 10:56:46;;;;;;;26.20;17.40;;;;;;;;;;5054451;28;20033;-42
2022/04/28 10:59:29;;;;;;;28.95;19.00;;;;;;;;;;5054512;28;20021;-42
2022/04/28 11:01:58;;;;;;;27.20;19.30;;;;;;;;;;5054598;28;20033;-41
2022/04/28 11:04:25;;;;;;;27.23;18.70;;;;;;;;;;5054351;28;20033;-42
2022/04/28 11:06:52;;;;;;;25.48;17.63;;;;;;;;;;5054164;28;20154;-41
2022/04/28 11:09:31;;;;;;;30.77;19.30;;;;;;;;;;5054135;28;20021;-40
2022/04/28 11:12:10;;;;;;;26.33;17.70;;;;;;;;;;5054385;28;20064;-41
2022/04/28 11:15:02;;;;;;;26.77;18.23;;;;;;;;;;5054158;28;20018;-41
2022/04/28 11:17:29;;;;;;;26.58;17.42;;;;;;;;;;5052694;28;20496;-41
2022/04/28 11:19:55;;;;;;;26.40;17.83;;;;;;;;;;5053945;28;20021;-42
2022/04/28 11:22:22;;;;;;;23.65;16.02;;;;;;;;;;5054043;28;20481;-42
2022/04/28 11:24:49;;;;;;;22.38;15.63;;;;;;;;;;5053636;28;20497;-44
2022/04/28 11:27:18;;;;;;;26.77;17.65;;;;;;;;;;5054027;28;20108;-42
2022/04/28 11:29:46;;;;;;;31.50;19.08;;;;;;;;;;5053716;28;20071;-40
2022/04/28 11:32:13;;;;;;;21.33;15.68;;;;;;;;;;5052753;28;20079;-40
2022/04/28 11:34:40;;;;;;;21.17;15.02;;;;;;;;;;5053748;28;20075;-40
2022/04/28 11:37:17;;;;;;;22.85;15.23;;;;;;;;;;5053189;28;20021;-43
2022/04/28 11:39:46;;;;;;;20.63;14.20;;;;;;;;;;5051376;28;20103;-43
2022/04/28 11:42:13;;;;;;;28.40;19.65;;;;;;;;;;5053367;28;20467;-40
2022/04/28 11:44:46;;;;;;;35.90;22.23;;;;;;;;;;5052879;28;20406;-40
2022/04/28 11:47:17;;;;;;;22.88;16.40;;;;;;;;;;5052143;28;20029;-40
2022/04/28 11:49:43;;;;;;;20.63;15.00;;;;;;;;;;5052943;28;20459;-40
2022/04/28 11:52:23;;;;;;;23.08;16.73;;;;;;;;;;5053014;28;20535;-40
2022/04/28 11:55:08;;;;;;;39.13;24.17;;;;;;;;;;5051765;28;20488;-40
2022/04/28 11:57:39;;;;;;;37.40;25.65;;;;;;;;;;5052345;28;20021;-41
2022/04/28 12:00:09;;;;;;;37.78;22.92;;;;;;;;;;5052709;28;20029;-40
2022/04/28 12:02:36;;;;;;;28.50;19.17;;;;;;;;;;5048672;28;20091;-40
2022/04/28 12:05:05;;;;;;;22.13;14.90;;;;;;;;;;5052509;28;20032;-40
2022/04/28 12:07:32;;;;;;;21.35;15.88;;;;;;;;;;5052746;28;20017;-40
2022/04/28 12:15:29;;;;;;;41.75;24.27;;;;;;;;;;5053600;28;20443;-41
2022/04/28 12:20:49;;;;;;;26.73;18.73;;;;;;;;;;5053493;28;20099;-41
2022/04/28 12:23:34;;;;;;;27.55;19.23;;;;;;;;;;5053004;28;20036;-41
2022/04/28 12:26:01;;;;;;;30.27;20.90;;;;;;;;;;5052996;28;20396;-41
2022/04/28 12:28:38;;;;;;;39.95;24.30;;;;;;;;;;5052989;28;20025;-41
2022/04/28 12:31:04;;;;;;;52.58;31.00;;;;;;;;;;5053023;28;20036;-43
2022/04/28 12:33:34;;;;;;;25.95;17.92;;;;;;;;;;5052201;28;20033;-41
2022/04/28 12:36:01;;;;;;;23.00;15.82;;;;;;;;;;5053012;28;20025;-41
2022/04/28 12:38:28;;;;;;;31.80;19.75;;;;;;;;;;5053127;28;20017;-42
2022/04/28 12:40:54;;;;;;;42.30;25.08;;;;;;;;;;5053711;28;20435;-41
2022/04/28 12:43:39;;;;;;;41.03;23.77;;;;;;;;;;5052964;28;20021;-40
2022/04/28 12:46:09;;;;;;;39.65;26.42;;;;;;;;;;5053218;28;20037;-40
2022/04/28 12:48:36;;;;;;;48.53;29.30;;;;;;;;;;5053167;28;20393;-41
2022/04/28 12:51:12;;;;;;;25.35;15.63;;;;;;;;;;5052703;28;20049;-41
2022/04/28 12:53:40;;;;;;;24.52;15.32;;;;;;;;;;5052636;28;20091;-42
2022/04/28 12:56:08;;;;;;;25.10;14.90;;;;;;;;;;5052948;28;20388;-40
2022/04/28 12:58:42;;;;;;;25.55;14.82;;;;;;;;;;5055830;28;20644;-43
2022/04/28 13:01:09;;;;;;;16.40;12.50;;;;;;;;;;5056461;28;20025;-42
2022/04/28 13:03:35;;;;;;;21.65;13.80;;;;;;;;;;5056451;28;20029;-43
2022/04/28 13:06:04;;;;;;;17.92;13.20;;;;;;;;;;5056552;28;20159;-42
2022/04/28 13:08:32;;;;;;;18.40;13.32;;;;;;;;;;5056297;28;20477;-41
2022/04/28 13:10:59;;;;;;;20.20;13.52;;;;;;;;;;5056157;28;20037;-41
2022/04/28 13:13:25;;;;;;;17.90;12.20;;;;;;;;;;5056461;28;20025;-42
2022/04/28 13:15:51;;;;;;;21.27;13.75;;;;;;;;;;5056403;28;20388;-42
2022/04/28 13:18:17;;;;;;;26.60;13.65;;;;;;;;;;5056130;28;20021;-44
2022/04/28 13:20:43;;;;;;;18.10;13.20;;;;;;;;;;5056505;28;20492;-43
2022/04/28 13:23:11;;;;;;;18.73;13.40;;;;;;;;;;5055939;28;20060;-42
2022/04/28 13:25:37;;;;;;;21.33;14.45;;;;;;;;;;5055803;28;20033;-42
2022/04/28 13:28:03;;;;;;;17.45;13.07;;;;;;;;;;5056182;28;20025;-42
2022/04/28 13:30:31;;;;;;;22.83;14.02;;;;;;;;;;5055896;28;20025;-42
2022/04/28 13:32:57;;;;;;;20.52;14.73;;;;;;;;;;5055379;28;20024;-41
2022/04/28 13:35:25;;;;;;;21.25;15.32;;;;;;;;;;5055749;28;20021;-42
2022/04/28 13:37:51;;;;;;;23.52;15.38;;;;;;;;;;5055753;28;20445;-42
2022/04/28 13:40:17;;;;;;;22.02;15.32;;;;;;;;;;5055438;28;20067;-41
2022/04/28 13:42:43;;;;;;;22.60;16.70;;;;;;;;;;5055888;28;20029;-41
2022/04/28 13:45:09;;;;;;;21.38;15.15;;;;;;;;;;5055295;28;20400;-41
2022/04/28 13:47:36;;;;;;;24.80;15.98;;;;;;;;;;5053881;28;20105;-41
2022/04/28 13:50:02;;;;;;;24.45;16.80;;;;;;;;;;5054652;28;20041;-41
2022/04/28 13:52:28;;;;;;;22.73;16.70;;;;;;;;;;5055228;28;20068;-42
2022/04/28 13:54:54;;;;;;;24.25;16.70;;;;;;;;;;5055181;28;20055;-40
2022/04/28 13:57:20;;;;;;;22.92;16.05;;;;;;;;;;5055228;28;20389;-41
2022/04/28 13:59:46;;;;;;;22.17;15.82;;;;;;;;;;5055317;28;20115;-41
2022/04/28 14:02:13;;;;;;;29.17;18.60;;;;;;;;;;5053979;28;20033;-41
2022/04/28 14:04:39;;;;;;;27.65;18.48;;;;;;;;;;5048145;28;20024;-42
2022/04/28 14:07:05;;;;;;;27.92;17.35;;;;;;;;;;5035448;28;20040;-42
2022/04/28 14:09:32;;;;;;;23.80;15.30;;;;;;;;;;5034566;28;20018;-43
2022/04/28 14:11:58;;;;;;;21.20;14.60;;;;;;;;;;5035094;28;20036;-43
2022/04/28 14:14:24;;;;;;;23.42;15.07;;;;;;;;;;5040722;28;20018;-42
2022/04/28 14:16:50;;;;;;;21.08;13.32;;;;;;;;;;5055136;28;20017;-42
2022/04/28 14:19:16;;;;;;;18.38;12.30;;;;;;;;;;5055111;28;20029;-43
2022/04/28 14:21:43;;;;;;;19.35;14.02;;;;;;;;;;5055272;28;20388;-43
2022/04/28 14:24:09;;;;;;;20.27;14.05;;;;;;;;;;5053673;28;20423;-43
2022/04/28 14:26:35;;;;;;;21.85;14.05;;;;;;;;;;5054713;28;20040;-43
2022/04/28 14:29:03;;;;;;;24.92;15.77;;;;;;;;;;5054123;28;20029;-44
2022/04/28 14:31:29;;;;;;;20.73;14.35;;;;;;;;;;5055027;28;20021;-42
2022/04/28 14:33:55;;;;;;;20.17;14.48;;;;;;;;;;5054030;28;20028;-43
2022/04/28 14:36:23;;;;;;;19.92;14.38;;;;;;;;;;5054526;28;20484;-44
2022/04/28 14:38:50;;;;;;;27.05;15.68;;;;;;;;;;5054656;28;20798;-41
2022/04/28 14:41:16;;;;;;;19.55;14.65;;;;;;;;;;5054454;28;20021;-41
2022/04/28 14:43:42;;;;;;;20.63;15.32;;;;;;;;;;5054900;28;20017;-43
2022/04/28 14:46:08;;;;;;;23.75;16.55;;;;;;;;;;5054603;28;20033;-42
2022/04/28 14:52:19;;;;;;;24.30;16.50;;;;;;;;;;5054780;28;20027;-43
2022/04/28 14:54:16;;;;;;;24.48;16.83;;;;;;;;;;5012566;28;20030;-41
2022/04/28 14:56:42;;;;;;;27.63;17.25;;;;;;;;;;5012479;28;20541;-41
2022/04/28 14:59:10;;;;;;;26.05;17.00;;;;;;;;;;5012736;28;20089;-42
2022/04/28 15:01:36;;;;;;;29.10;16.83;;;;;;;;;;5011312;28;20109;-41